createdAt,value
2023-11-13T00:02:02.284Z,100226.06
2023-11-13T00:05:05.784Z,100223.72
2023-11-13T00:08:08.366Z,100228.00
2023-11-13T00:11:10.880Z,100237.13
2023-11-13T00:14:13.339Z,100238.28
2023-11-13T00:17:15.720Z,100234.28
2023-11-13T00:20:20.177Z,100247.78
2023-11-13T00:23:22.576Z,100260.06
2023-11-13T00:26:25.792Z,100254.09
2023-11-13T00:29:30.500Z,100264.06
2023-11-13T00:32:33.270Z,100280.34
2023-11-13T00:35:35.697Z,100266.28
2023-11-13T00:38:38.062Z,100281.44
2023-11-13T00:41:42.610Z,100283.47
2023-11-13T00:44:45.084Z,100274.50
2023-11-13T00:47:47.524Z,100268.94
2023-11-13T00:50:50.003Z,100259.84
2023-11-13T00:53:52.752Z,100256.06
2023-11-13T00:56:55.114Z,100256.88
2023-11-13T00:59:57.617Z,100254.63
2023-11-13T01:03:00.225Z,100251.75
2023-11-13T01:06:03.956Z,100253.22
2023-11-13T01:09:07.209Z,100253.88
2023-11-13T01:12:09.972Z,100258.72
2023-11-13T01:15:13.349Z,100257.63
2023-11-13T01:18:19.318Z,100259.91
2023-11-13T01:21:23.112Z,100259.50
2023-11-13T01:24:25.607Z,100270.16
2023-11-13T01:27:28.072Z,100265.88
2023-11-13T01:30:30.841Z,100263.44
2023-11-13T01:33:33.912Z,100269.56
2023-11-13T01:36:36.703Z,100266.66
2023-11-13T01:39:39.121Z,100269.81
2023-11-13T01:42:42.317Z,100272.28
2023-11-13T01:45:45.446Z,100276.94
2023-11-13T01:48:47.954Z,100272.34
2023-11-13T01:51:51.079Z,100281.78
2023-11-13T01:54:54.027Z,100279.72
2023-11-13T01:57:56.597Z,100285.41
2023-11-13T02:00:59.245Z,100290.00
2023-11-13T02:04:01.863Z,100294.50
2023-11-13T02:07:05.796Z,100295.16
2023-11-13T02:10:08.939Z,100295.06
2023-11-13T02:13:13.272Z,100291.69
2023-11-13T02:16:16.405Z,100298.28
2023-11-13T02:19:19.401Z,100303.25
2023-11-13T02:22:21.883Z,100311.88
2023-11-13T02:25:25.709Z,100298.53
2023-11-13T02:28:28.248Z,100288.13
2023-11-13T02:31:31.206Z,100289.97
2023-11-13T02:34:33.695Z,100281.22
2023-11-13T02:37:36.141Z,100283.84
2023-11-13T02:40:38.511Z,100274.47
2023-11-13T02:43:40.882Z,100281.47
2023-11-13T02:46:43.610Z,100282.72
2023-11-13T02:49:46.128Z,100284.75
2023-11-13T02:52:49.014Z,100290.34
2023-11-13T02:55:52.613Z,100290.09
2023-11-13T02:58:57.522Z,100272.97
2023-11-13T03:01:59.950Z,100275.69
2023-11-13T03:05:02.497Z,100283.06
2023-11-13T03:08:04.965Z,100305.19
2023-11-13T03:11:07.401Z,100311.13
2023-11-13T03:14:09.849Z,100321.75
2023-11-13T03:17:12.272Z,100335.94
2023-11-13T03:20:14.823Z,100339.72
2023-11-13T03:23:17.226Z,100343.22
2023-11-13T03:26:19.645Z,100339.91
2023-11-13T03:29:22.054Z,100349.22
2023-11-13T03:32:24.731Z,100351.31
2023-11-13T03:35:27.684Z,100363.88
2023-11-13T03:38:30.057Z,100360.09
2023-11-13T03:41:33.564Z,100366.00
2023-11-13T03:44:36.240Z,100364.09
2023-11-13T03:47:39.693Z,100366.03
2023-11-13T03:50:42.177Z,100365.59
2023-11-13T03:53:44.658Z,100353.38
2023-11-13T03:56:47.109Z,100347.06
2023-11-13T03:59:49.563Z,100337.56
2023-11-13T04:02:52.064Z,100329.66
2023-11-13T04:05:56.084Z,100333.38
2023-11-13T04:08:58.492Z,100330.56
2023-11-13T04:12:00.917Z,100334.34
2023-11-13T04:15:04.252Z,100331.69
2023-11-13T04:18:08.444Z,100332.47
2023-11-13T04:21:10.972Z,100325.53
2023-11-13T04:24:13.454Z,100332.16
2023-11-13T04:27:15.826Z,100333.47
2023-11-13T04:30:18.330Z,100326.25
2023-11-13T04:33:20.837Z,100326.25
2023-11-13T04:36:23.437Z,100324.66
2023-11-13T04:39:26.088Z,100322.50
2023-11-13T04:42:28.549Z,100312.31
2023-11-13T04:45:30.990Z,100322.66
2023-11-13T04:48:34.023Z,100314.59
2023-11-13T04:51:36.408Z,100313.00
2023-11-13T04:54:38.880Z,100319.09
2023-11-13T04:57:41.323Z,100313.66
2023-11-13T05:00:43.685Z,100311.75
2023-11-13T05:03:46.878Z,100326.19
2023-11-13T05:06:49.467Z,100317.97
2023-11-13T05:09:51.962Z,100317.72
2023-11-13T05:12:54.448Z,100323.91
2023-11-13T05:15:56.905Z,100320.69
2023-11-13T05:19:00.114Z,100314.84
2023-11-13T05:22:02.548Z,100318.88
2023-11-13T05:25:05.290Z,100322.06
2023-11-13T05:28:08.393Z,100334.59
2023-11-13T05:31:10.902Z,100342.75
2023-11-13T05:34:13.619Z,100336.91
2023-11-13T05:37:16.610Z,100331.28
2023-11-13T05:40:20.534Z,100341.50
2023-11-13T05:43:23.082Z,100341.50
2023-11-13T05:46:25.911Z,100333.47
2023-11-13T05:49:28.399Z,100345.56
2023-11-13T05:52:30.822Z,100337.59
2023-11-13T05:55:33.808Z,100343.25
2023-11-13T05:58:36.767Z,100355.00
2023-11-13T06:01:39.160Z,100357.72
2023-11-13T06:04:49.420Z,100359.06
2023-11-13T06:07:51.902Z,100361.47
2023-11-13T06:10:54.316Z,100369.25
2023-11-13T06:13:57.176Z,100381.88
2023-11-13T06:17:01.718Z,100378.41
2023-11-13T06:20:05.172Z,100372.50
2023-11-13T06:23:07.606Z,100369.31
2023-11-13T06:26:13.741Z,100372.53
2023-11-13T06:29:16.251Z,100381.63
2023-11-13T06:32:19.336Z,100389.38
2023-11-13T06:35:21.846Z,100391.78
2023-11-13T06:38:24.232Z,100390.44
2023-11-13T06:41:26.808Z,100401.44
2023-11-13T06:44:29.195Z,100405.19
2023-11-13T06:47:31.592Z,100406.53
2023-11-13T06:50:34.093Z,100412.91
2023-11-13T06:53:36.827Z,100415.59
2023-11-13T06:56:40.892Z,100417.91
2023-11-13T06:59:43.310Z,100428.38
2023-11-13T07:02:48.687Z,100422.03
2023-11-13T07:05:51.421Z,100421.19
2023-11-13T07:08:53.776Z,100433.28
2023-11-13T07:11:56.185Z,100424.19
2023-11-13T07:14:59.008Z,100415.63
2023-11-13T07:18:01.448Z,100417.50
2023-11-13T07:21:04.168Z,100427.69
2023-11-13T07:24:07.435Z,100426.06
2023-11-13T07:27:10.357Z,100412.41
2023-11-13T07:30:12.964Z,100411.63
2023-11-13T07:33:15.635Z,100408.91
2023-11-13T07:36:18.185Z,100412.69
2023-11-13T07:39:23.334Z,100405.44
2023-11-13T07:42:27.031Z,100414.81
2023-11-13T07:45:29.466Z,100412.69
2023-11-13T07:48:32.088Z,100401.41
2023-11-13T07:51:34.472Z,100406.25
2023-11-13T07:54:36.867Z,100405.16
2023-11-13T07:57:42.254Z,100406.75
2023-11-13T08:00:45.596Z,100404.06
2023-11-13T08:03:49.063Z,100403.00
2023-11-13T08:06:51.867Z,100417.94
2023-11-13T08:09:54.411Z,100410.94
2023-11-13T08:12:56.970Z,100402.50
2023-11-13T08:15:59.548Z,100401.09
2023-11-13T08:19:02.180Z,100396.09
2023-11-13T08:22:06.192Z,100398.19
2023-11-13T08:25:17.201Z,100389.56
2023-11-13T08:28:19.763Z,100382.03
2023-11-13T08:31:22.564Z,100391.56
2023-11-13T08:34:25.240Z,100402.28
2023-11-13T08:37:28.304Z,100408.09
2023-11-13T08:40:30.815Z,100401.84
2023-11-13T08:43:34.550Z,100414.56
2023-11-13T08:46:37.062Z,100417.44
2023-11-13T08:49:42.780Z,100425.59
2023-11-13T08:52:47.294Z,100416.38
2023-11-13T08:55:49.796Z,100409.03
2023-11-13T08:58:55.031Z,100401.28
2023-11-13T09:01:57.636Z,100392.03
2023-11-13T09:05:05.273Z,100376.00
2023-11-13T09:08:09.659Z,100363.22
2023-11-13T09:11:17.561Z,100361.78
2023-11-13T09:14:23.615Z,100370.13
2023-11-13T09:17:26.317Z,100372.53
2023-11-13T09:20:30.636Z,100368.56
2023-11-13T09:23:33.241Z,100350.47
2023-11-13T09:26:35.638Z,100354.09
2023-11-13T09:29:45.010Z,100352.81
2023-11-13T09:32:51.845Z,100351.00
2023-11-13T09:35:55.076Z,100346.28
2023-11-13T09:38:57.508Z,100366.50
2023-11-13T09:42:15.028Z,100349.38
2023-11-13T09:45:17.713Z,100350.91
2023-11-13T09:48:29.687Z,100365.84
2023-11-13T09:51:32.746Z,100363.25
2023-11-13T09:54:37.112Z,100354.84
2023-11-13T09:57:42.382Z,100355.72
2023-11-13T10:00:44.781Z,100339.16
2023-11-13T10:03:47.274Z,100343.69
2023-11-13T10:06:53.643Z,100343.38
2023-11-13T10:10:04.537Z,100340.88
2023-11-13T10:13:11.251Z,100341.66
2023-11-13T10:16:21.932Z,100332.88
2023-11-13T10:19:25.378Z,100320.22
2023-11-13T10:22:27.802Z,100313.09
2023-11-13T10:25:47.072Z,100312.63
2023-11-13T10:28:49.706Z,100308.19
2023-11-13T10:31:54.192Z,100320.06
2023-11-13T10:34:58.258Z,100317.56
2023-11-13T10:38:00.856Z,100316.53
2023-11-13T10:41:04.756Z,100314.41
2023-11-13T10:44:28.566Z,100307.25
2023-11-13T10:47:32.524Z,100304.63
2023-11-13T10:50:35.127Z,100297.41
2023-11-13T10:53:42.853Z,100303.31
2023-11-13T10:56:50.148Z,100297.97
2023-11-13T10:59:54.523Z,100302.19
2023-11-13T11:03:04.605Z,100292.09
2023-11-13T11:06:12.714Z,100289.00
2023-11-13T11:09:19.484Z,100290.94
2023-11-13T11:12:23.164Z,100285.03
2023-11-13T11:15:44.538Z,100289.56
2023-11-13T11:18:54.418Z,100291.13
2023-11-13T11:22:26.057Z,100284.25
2023-11-13T11:25:49.578Z,100271.78
2023-11-13T11:28:56.198Z,100265.28
2023-11-13T11:32:00.804Z,100272.94
2023-11-13T11:35:05.604Z,100266.47
2023-11-13T11:38:24.560Z,100248.47
2023-11-13T11:41:52.851Z,100250.97
2023-11-13T11:44:55.311Z,100246.03
2023-11-13T11:47:58.425Z,100249.66
2023-11-13T11:51:14.272Z,100248.28
2023-11-13T11:54:16.786Z,100243.69
2023-11-13T12:00:26.687Z,100242.19
2023-11-13T12:03:30.171Z,100231.59
2023-11-13T12:06:33.396Z,100236.78
2023-11-13T12:09:45.058Z,100236.78
2023-11-13T12:12:48.919Z,100252.47
2023-11-13T12:15:55.653Z,100236.28
2023-11-13T12:18:58.079Z,100230.91
2023-11-13T12:22:00.505Z,100232.09
2023-11-13T12:25:07.837Z,100214.72
2023-11-13T12:28:10.451Z,100211.03
2023-11-13T12:31:17.399Z,100217.41
2023-11-13T12:34:20.753Z,100215.81
2023-11-13T12:37:25.072Z,100211.00
2023-11-13T12:40:30.001Z,100208.53
2023-11-13T12:43:32.677Z,100208.25
2023-11-13T12:46:35.458Z,100209.25
2023-11-13T12:49:39.325Z,100204.16
2023-11-13T12:52:44.885Z,100207.06
2023-11-13T12:55:47.483Z,100208.63
2023-11-13T12:58:51.691Z,100201.34
2023-11-13T13:01:54.263Z,100195.06
2023-11-13T13:04:59.664Z,100192.44
2023-11-13T13:08:03.808Z,100186.88
2023-11-13T13:11:06.996Z,100183.56
2023-11-13T13:14:13.181Z,100177.78
2023-11-13T13:17:17.216Z,100181.28
2023-11-13T13:20:31.614Z,100186.25
2023-11-13T13:23:35.866Z,100184.28
2023-11-13T13:26:38.498Z,100183.09
2023-11-13T13:29:40.960Z,100177.78
2023-11-13T13:32:43.362Z,100175.38
2023-11-13T13:35:45.837Z,100168.38
2023-11-13T13:38:48.388Z,100173.69
2023-11-13T13:41:52.837Z,100167.34
2023-11-13T13:44:55.261Z,100174.06
2023-11-13T13:47:58.336Z,100182.56
2023-11-13T13:51:01.290Z,100173.84
2023-11-13T13:54:08.111Z,100169.38
2023-11-13T13:57:11.194Z,100171.66
2023-11-13T14:00:36.087Z,100170.47
2023-11-13T14:03:40.489Z,100176.75
2023-11-13T14:06:43.604Z,100183.44
2023-11-13T14:09:46.017Z,100177.50
2023-11-13T14:12:51.971Z,100175.84
2023-11-13T14:16:04.671Z,100171.31
2023-11-13T14:19:11.812Z,100176.81
2023-11-13T14:22:14.470Z,100165.41
2023-11-13T14:25:18.538Z,100157.31
2023-11-13T14:28:23.147Z,100164.41
2023-11-13T14:31:25.771Z,100175.63
2023-11-13T14:34:28.582Z,100159.06
2023-11-13T14:37:31.078Z,100157.41
2023-11-13T14:40:33.565Z,100159.47
2023-11-13T14:43:36.372Z,100167.31
2023-11-13T14:46:40.833Z,100175.81
2023-11-13T14:49:43.467Z,100175.88
2023-11-13T14:52:51.977Z,100175.97
2023-11-13T14:55:55.806Z,100188.09
2023-11-13T14:58:58.445Z,100192.16
2023-11-13T15:02:00.967Z,100191.78
2023-11-13T15:05:06.827Z,100196.59
2023-11-13T15:08:09.433Z,100196.53
2023-11-13T15:11:11.996Z,100191.88
2023-11-13T15:14:16.922Z,100198.69
2023-11-13T15:17:19.841Z,100185.34
2023-11-13T15:20:22.532Z,100169.69
2023-11-13T15:23:38.995Z,100167.50
2023-11-13T15:26:48.580Z,100151.81
2023-11-13T15:29:51.022Z,100149.69
2023-11-13T15:32:53.499Z,100162.88
2023-11-13T15:35:55.937Z,100170.75
2023-11-13T15:38:59.060Z,100159.94
2023-11-13T15:42:01.775Z,100160.38
2023-11-13T15:45:04.614Z,100160.25
2023-11-13T15:48:08.213Z,100150.38
2023-11-13T15:51:12.192Z,100148.91
2023-11-13T15:54:14.563Z,100147.34
2023-11-13T15:57:17.082Z,100162.38
2023-11-13T16:00:19.954Z,100156.28
2023-11-13T16:03:28.743Z,100144.94
2023-11-13T16:06:35.761Z,100144.34
2023-11-13T16:09:38.195Z,100140.00
2023-11-13T16:12:42.136Z,100141.81
2023-11-13T16:15:46.224Z,100138.88
2023-11-13T16:18:51.824Z,100147.41
2023-11-13T16:21:54.347Z,100149.03
2023-11-13T16:24:57.221Z,100165.69
2023-11-13T16:27:59.608Z,100169.47
2023-11-13T16:31:04.578Z,100157.69
2023-11-13T16:34:09.969Z,100153.19
2023-11-13T16:37:12.659Z,100163.66
2023-11-13T16:40:15.368Z,100155.59
2023-11-13T16:43:17.923Z,100158.81
2023-11-13T16:46:22.405Z,100161.81
2023-11-13T16:49:24.980Z,100163.19
2023-11-13T16:52:27.407Z,100166.84
2023-11-13T16:55:32.821Z,100157.63
2023-11-13T16:58:36.777Z,100157.19
2023-11-13T17:01:41.379Z,100157.06
2023-11-13T17:04:44.461Z,100159.47
2023-11-13T17:07:47.868Z,100155.41
2023-11-13T17:10:50.449Z,100156.13
2023-11-13T17:13:53.725Z,100157.72
2023-11-13T17:16:56.334Z,100155.50
2023-11-13T17:19:59.102Z,100150.16
2023-11-13T17:23:06.316Z,100144.06
2023-11-13T17:26:09.838Z,100150.75
2023-11-13T17:29:12.348Z,100151.75
2023-11-13T17:32:15.942Z,100141.91
2023-11-13T17:35:21.351Z,100145.06
2023-11-13T17:38:24.808Z,100135.63
2023-11-13T17:41:27.561Z,100129.47
2023-11-13T17:44:30.140Z,100129.97
2023-11-13T17:47:32.647Z,100124.09
2023-11-13T17:50:35.158Z,100129.63
2023-11-13T17:53:37.581Z,100127.22
2023-11-13T17:56:40.891Z,100126.19
2023-11-13T17:59:43.492Z,100126.25
2023-11-13T18:02:46.175Z,100116.03
2023-11-13T18:05:50.309Z,100112.53
2023-11-13T18:08:55.618Z,100116.31
2023-11-13T18:11:59.927Z,100123.75
2023-11-13T18:15:04.492Z,100119.16
2023-11-13T18:18:08.270Z,100114.88
2023-11-13T18:21:10.934Z,100117.63
2023-11-13T18:24:14.273Z,100129.41
2023-11-13T18:27:17.551Z,100132.88
2023-11-13T18:30:20.540Z,100139.34
2023-11-13T18:33:24.361Z,100137.34
2023-11-13T18:36:26.993Z,100148.56
2023-11-13T18:39:29.343Z,100144.13
2023-11-13T18:42:31.861Z,100134.41
2023-11-13T18:45:34.342Z,100131.94
2023-11-13T18:48:36.956Z,100126.91
2023-11-13T18:51:39.718Z,100131.44
2023-11-13T18:54:42.370Z,100127.72
2023-11-13T18:57:45.237Z,100120.69
2023-11-13T19:00:48.269Z,100116.03
2023-11-13T19:03:51.041Z,100116.31
2023-11-13T19:06:53.663Z,100116.75
2023-11-13T19:09:56.461Z,100105.22
2023-11-13T19:12:59.214Z,100106.06
2023-11-13T19:16:02.008Z,100097.94
2023-11-13T19:19:04.707Z,100094.69
2023-11-13T19:22:07.380Z,100086.06
2023-11-13T19:25:10.212Z,100072.59
2023-11-13T19:28:13.215Z,100078.22
2023-11-13T19:31:16.692Z,100073.19
2023-11-13T19:34:19.613Z,100074.50
2023-11-13T19:37:22.246Z,100073.19
2023-11-13T19:40:24.867Z,100065.25
2023-11-13T19:43:27.359Z,100078.41
2023-11-13T19:46:29.846Z,100078.41
2023-11-13T19:49:32.439Z,100084.84
2023-11-13T19:52:45.274Z,100085.00
2023-11-13T19:55:50.309Z,100089.94
2023-11-13T19:58:52.816Z,100077.81
2023-11-13T20:01:56.137Z,100083.72
2023-11-13T20:04:58.955Z,100087.53
2023-11-13T20:08:05.034Z,100080.28
2023-11-13T20:11:08.026Z,100072.50
2023-11-13T20:14:11.152Z,100077.25
2023-11-13T20:17:14.007Z,100083.13
2023-11-13T20:20:20.170Z,100077.75
2023-11-13T20:23:22.685Z,100092.66
2023-11-13T20:26:25.368Z,100075.75
2023-11-13T20:29:28.288Z,100072.75
2023-11-13T20:32:31.145Z,100075.34
2023-11-13T20:35:34.049Z,100074.88
2023-11-13T20:38:37.197Z,100064.81
2023-11-13T20:41:40.988Z,100062.41
2023-11-13T20:44:44.730Z,100064.91
2023-11-13T20:47:47.364Z,100059.22
2023-11-13T20:50:49.975Z,100052.34
2023-11-13T20:53:52.671Z,100043.25
2023-11-13T20:56:55.299Z,100047.25
2023-11-13T20:59:57.891Z,100038.59
2023-11-13T21:03:00.543Z,100048.28
2023-11-13T21:06:07.793Z,100060.75
2023-11-13T21:09:11.160Z,100053.78
2023-11-13T21:12:13.628Z,100055.94
2023-11-13T21:15:16.181Z,100049.56
2023-11-13T21:18:18.716Z,100049.84
2023-11-13T21:21:21.164Z,100032.28
2023-11-13T21:24:23.596Z,100032.78
2023-11-13T21:27:27.073Z,100031.19
2023-11-13T21:30:29.484Z,100025.88
2023-11-13T21:33:32.934Z,100013.63
2023-11-13T21:36:35.330Z,100005.31
2023-11-13T21:39:37.738Z,99999.34
2023-11-13T21:42:40.444Z,99978.88
2023-11-13T21:45:42.907Z,99986.44
2023-11-13T21:48:45.364Z,99979.34
2023-11-13T21:51:47.898Z,99987.94
2023-11-13T21:54:51.254Z,99973.69
2023-11-13T21:57:55.353Z,99968.22
2023-11-13T22:00:59.318Z,99975.69
2023-11-13T22:04:02.314Z,99975.78
2023-11-13T22:07:04.824Z,99971.00
2023-11-13T22:10:08.462Z,99958.34
2023-11-13T22:13:12.093Z,99961.44
2023-11-13T22:16:14.491Z,99950.78
2023-11-13T22:19:17.397Z,99954.28
2023-11-13T22:22:21.022Z,99959.56
2023-11-13T22:25:23.934Z,99957.88
2023-11-13T22:28:26.604Z,99951.31
2023-11-13T22:31:29.098Z,99943.75
2023-11-13T22:34:31.640Z,99934.88
2023-11-13T22:37:34.245Z,99937.38
2023-11-13T22:40:37.704Z,99936.06
2023-11-13T22:43:40.350Z,99936.34
2023-11-13T22:46:43.181Z,99933.59
2023-11-13T22:49:47.032Z,99930.38
2023-11-13T22:52:49.860Z,99913.97
2023-11-13T22:55:52.291Z,99903.69
2023-11-13T22:58:54.892Z,99907.00
2023-11-13T23:01:57.396Z,99904.50
2023-11-13T23:05:01.587Z,99887.19
2023-11-13T23:08:05.676Z,99901.59
2023-11-13T23:11:08.370Z,99888.56
2023-11-13T23:14:10.898Z,99897.59
2023-11-13T23:17:13.466Z,99903.50
2023-11-13T23:20:15.950Z,99900.81
2023-11-13T23:23:18.369Z,99898.63
2023-11-13T23:26:21.263Z,99889.16
2023-11-13T23:29:23.861Z,99879.28
2023-11-13T23:32:26.405Z,99880.78
2023-11-13T23:35:28.805Z,99875.13
2023-11-13T23:38:31.216Z,99868.34
2023-11-13T23:41:33.642Z,99873.41
2023-11-13T23:44:36.028Z,99877.09
2023-11-13T23:47:38.774Z,99876.31
2023-11-13T23:50:43.799Z,99872.53
2023-11-13T23:53:47.756Z,99865.16
2023-11-13T23:56:51.017Z,99859.34
2023-11-13T23:59:53.553Z,99851.88
